createdAt,value
2023-05-01T00:02:03.759Z,67.81
2023-05-01T00:04:30.473Z,67.74
2023-05-01T00:06:57.760Z,67.87
2023-05-01T00:09:24.680Z,68.35
2023-05-01T00:11:51.376Z,68.09
2023-05-01T00:14:18.031Z,68.51
2023-05-01T00:16:46.293Z,69.40
2023-05-01T00:19:16.532Z,69.28
2023-05-01T00:21:43.340Z,69.43
2023-05-01T00:24:09.943Z,69.29
2023-05-01T00:26:36.907Z,69.99
2023-05-01T00:29:03.635Z,69.56
2023-05-01T00:31:30.305Z,69.41
2023-05-01T00:33:57.750Z,70.30
2023-05-01T00:36:24.375Z,69.83
2023-05-01T00:38:51.018Z,70.31
2023-05-01T00:41:17.710Z,70.01
2023-05-01T00:43:44.424Z,69.55
2023-05-01T00:46:11.382Z,69.95
2023-05-01T00:48:38.074Z,69.71
2023-05-01T00:51:05.122Z,69.39
2023-05-01T00:53:33.328Z,69.43
2023-05-01T00:56:00.192Z,69.92
2023-05-01T00:58:26.837Z,69.96
2023-05-01T01:00:53.497Z,69.76
2023-05-01T01:03:20.178Z,69.50
2023-05-01T01:05:57.254Z,70.11
2023-05-01T01:08:32.573Z,70.05
2023-05-01T01:11:05.420Z,69.58
2023-05-01T01:13:36.911Z,69.89
2023-05-01T01:16:13.629Z,69.70
2023-05-01T01:19:02.734Z,69.50
2023-05-01T01:21:35.185Z,69.61
2023-05-01T01:24:16.981Z,69.51
2023-05-01T01:27:02.443Z,69.79
2023-05-01T01:29:48.413Z,69.74
2023-05-01T01:32:23.913Z,70.39
2023-05-01T01:35:02.045Z,70.56
2023-05-01T01:37:30.524Z,69.62
2023-05-01T01:40:08.059Z,70.13
2023-05-01T01:42:39.130Z,70.58
2023-05-01T01:45:10.908Z,70.62
2023-05-01T01:47:37.560Z,70.29
2023-05-01T01:50:05.562Z,70.51
2023-05-01T01:52:32.246Z,70.69
2023-05-01T01:55:07.713Z,70.21
2023-05-01T01:57:35.592Z,70.44
2023-05-01T02:00:02.202Z,70.21
2023-05-01T02:02:29.013Z,70.59
2023-05-01T02:04:57.144Z,70.51
2023-05-01T02:07:23.807Z,70.59
2023-05-01T02:09:50.866Z,70.64
2023-05-01T02:12:18.367Z,70.91
2023-05-01T02:14:44.986Z,70.66
2023-05-01T02:17:11.755Z,70.46
2023-05-01T02:19:40.300Z,70.17
2023-05-01T02:22:06.914Z,70.20
2023-05-01T02:24:33.573Z,70.25
2023-05-01T02:27:21.178Z,70.43
2023-05-01T02:29:47.795Z,70.20
2023-05-01T02:32:14.566Z,70.53
2023-05-01T02:34:42.287Z,70.63
2023-05-01T02:37:11.194Z,70.15
2023-05-01T02:39:38.545Z,70.36
2023-05-01T02:42:05.262Z,70.17
2023-05-01T02:44:44.300Z,70.44
2023-05-01T02:47:11.312Z,69.95
2023-05-01T02:49:37.966Z,70.11
2023-05-01T02:52:05.179Z,70.22
2023-05-01T02:54:31.778Z,70.09
2023-05-01T02:56:59.452Z,70.21
2023-05-01T02:59:26.069Z,70.24
2023-05-01T03:01:53.010Z,70.54
2023-05-01T03:04:19.726Z,70.39
2023-05-01T03:06:46.407Z,70.50
2023-05-01T03:09:13.580Z,70.50
2023-05-01T03:11:40.412Z,70.51
2023-05-01T03:14:07.369Z,70.52
2023-05-01T03:16:34.093Z,70.44
2023-05-01T03:19:00.748Z,69.94
2023-05-01T03:21:27.553Z,69.96
2023-05-01T03:23:54.652Z,69.90
2023-05-01T03:26:21.359Z,70.02
2023-05-01T03:28:48.318Z,70.41
2023-05-01T03:31:15.199Z,69.96
2023-05-01T03:33:41.786Z,70.31
2023-05-01T03:36:11.590Z,69.94
2023-05-01T03:38:38.187Z,70.26
2023-05-01T03:41:05.448Z,70.26
2023-05-01T03:43:32.140Z,70.40
2023-05-01T03:45:59.044Z,70.23
2023-05-01T03:48:25.761Z,70.53
2023-05-01T03:50:52.485Z,70.27
2023-05-01T03:53:19.156Z,70.58
2023-05-01T03:55:45.867Z,70.40
2023-05-01T03:58:12.813Z,70.36
2023-05-01T04:00:39.468Z,70.17
2023-05-01T04:03:06.407Z,69.83
2023-05-01T04:05:33.521Z,69.80
2023-05-01T04:08:00.280Z,69.70
2023-05-01T04:10:26.909Z,69.61
2023-05-01T04:12:53.480Z,69.49
2023-05-01T04:15:20.592Z,69.28
2023-05-01T04:17:47.870Z,68.85
2023-05-01T04:20:14.692Z,68.70
2023-05-01T04:22:41.317Z,68.59
2023-05-01T04:25:09.214Z,68.23
2023-05-01T04:27:35.821Z,68.23
2023-05-01T04:30:02.486Z,67.91
2023-05-01T04:32:29.195Z,68.10
2023-05-01T04:34:56.337Z,67.59
2023-05-01T04:37:23.050Z,67.34
2023-05-01T04:39:50.954Z,67.20
2023-05-01T04:42:17.660Z,66.90
2023-05-01T04:44:45.907Z,66.28
2023-05-01T04:47:12.730Z,65.73
2023-05-01T04:49:39.433Z,66.07
2023-05-01T04:52:06.106Z,66.39
2023-05-01T04:54:32.722Z,65.68
2023-05-01T04:56:59.364Z,65.40
2023-05-01T04:59:25.958Z,65.71
2023-05-01T05:01:52.668Z,63.98
2023-05-01T05:04:19.321Z,63.39
2023-05-01T05:06:46.142Z,63.30
2023-05-01T05:09:13.403Z,60.49
2023-05-01T05:11:40.152Z,58.61
2023-05-01T05:14:06.856Z,56.37
2023-05-01T05:16:34.642Z,53.44
2023-05-01T05:19:01.344Z,48.62
2023-05-01T05:21:27.972Z,44.18
2023-05-01T05:23:54.656Z,38.81
2023-05-01T05:26:21.947Z,35.37
2023-05-01T05:28:48.591Z,33.84
2023-05-01T05:31:15.217Z,31.47
2023-05-01T05:33:41.898Z,29.62
2023-05-01T05:36:08.734Z,28.13
2023-05-01T05:38:35.381Z,26.62
2023-05-01T05:41:02.014Z,25.47
2023-05-01T05:43:28.786Z,24.03
2023-05-01T05:45:59.097Z,24.52
2023-05-01T05:48:25.911Z,23.79
2023-05-01T05:50:52.787Z,22.57
2023-05-01T05:53:20.155Z,22.12
2023-05-01T05:55:47.303Z,21.44
2023-05-01T05:58:20.260Z,20.99
2023-05-01T06:00:48.338Z,20.33
2023-05-01T06:03:15.447Z,19.21
2023-05-01T06:05:43.366Z,18.51
2023-05-01T06:08:10.502Z,17.48
2023-05-01T06:10:37.512Z,16.41
2023-05-01T06:13:13.665Z,16.27
2023-05-01T06:15:41.385Z,16.18
2023-05-01T06:18:08.378Z,15.60
2023-05-01T06:20:35.368Z,15.43
2023-05-01T06:23:01.985Z,15.01
2023-05-01T06:25:28.643Z,14.07
2023-05-01T06:27:55.390Z,14.31
2023-05-01T06:30:22.091Z,13.47
2023-05-01T06:32:49.293Z,12.82
2023-05-01T06:35:16.100Z,13.20
2023-05-01T06:37:42.789Z,12.68
2023-05-01T06:40:09.927Z,12.59
2023-05-01T06:42:37.330Z,12.52
2023-05-01T06:45:04.223Z,12.09
2023-05-01T06:47:30.906Z,12.22
2023-05-01T06:49:57.882Z,12.12
2023-05-01T06:52:24.931Z,12.34
2023-05-01T06:54:51.601Z,11.81
2023-05-01T06:57:18.206Z,12.11
2023-05-01T06:59:45.247Z,12.83
2023-05-01T07:02:11.977Z,12.33
2023-05-01T07:04:38.838Z,12.85
2023-05-01T07:07:05.484Z,12.88
2023-05-01T07:09:32.153Z,12.87
2023-05-01T07:11:59.008Z,13.28
2023-05-01T07:14:25.674Z,12.99
2023-05-01T07:16:52.378Z,12.93
2023-05-01T07:19:19.092Z,13.26
2023-05-01T07:21:45.877Z,13.79
2023-05-01T07:24:12.732Z,13.42
2023-05-01T07:26:39.316Z,13.99
2023-05-01T07:29:06.148Z,15.28
2023-05-01T07:31:32.855Z,16.77
2023-05-01T07:33:59.620Z,18.36
2023-05-01T07:36:26.311Z,18.83
2023-05-01T07:38:53.168Z,20.51
2023-05-01T07:41:19.828Z,21.63
2023-05-01T07:43:46.493Z,23.36
2023-05-01T07:46:13.147Z,23.50
2023-05-01T07:48:40.088Z,24.92
2023-05-01T07:51:06.752Z,26.52
2023-05-01T07:53:33.374Z,27.37
2023-05-01T07:56:06.343Z,28.16
2023-05-01T07:58:33.106Z,28.87
2023-05-01T08:01:00.556Z,29.85
2023-05-01T08:03:31.084Z,30.53
2023-05-01T08:05:58.001Z,31.92
2023-05-01T08:08:24.933Z,31.95
2023-05-01T08:10:51.872Z,31.85
2023-05-01T08:13:18.602Z,34.02
2023-05-01T08:15:47.155Z,32.77
2023-05-01T08:18:19.997Z,32.33
2023-05-01T08:20:48.155Z,33.70
2023-05-01T08:23:27.229Z,34.70
2023-05-01T08:25:53.904Z,34.60
2023-05-01T08:28:21.390Z,34.90
2023-05-01T08:30:49.497Z,35.50
2023-05-01T08:33:16.559Z,34.97
2023-05-01T08:35:43.427Z,34.40
2023-05-01T08:38:11.359Z,35.37
2023-05-01T08:40:38.394Z,36.00
2023-05-01T08:43:05.285Z,36.46
2023-05-01T08:45:36.292Z,35.61
2023-05-01T08:48:06.995Z,35.44
2023-05-01T08:50:39.572Z,36.17
2023-05-01T08:53:06.737Z,35.91
2023-05-01T08:55:33.987Z,35.60
2023-05-01T08:58:00.811Z,36.84
2023-05-01T09:00:27.634Z,36.20
2023-05-01T09:02:54.327Z,35.22
2023-05-01T09:05:21.265Z,36.93
2023-05-01T09:07:48.053Z,35.56
2023-05-01T09:10:15.919Z,36.60
2023-05-01T09:12:44.923Z,37.27
2023-05-01T09:15:11.992Z,38.05
2023-05-01T09:17:38.804Z,37.63
2023-05-01T09:20:06.227Z,37.08
2023-05-01T09:22:33.508Z,37.03
2023-05-01T09:25:00.238Z,38.78
2023-05-01T09:27:37.093Z,38.69
2023-05-01T09:30:06.034Z,38.33
2023-05-01T09:32:33.227Z,39.01
2023-05-01T09:35:13.685Z,39.08
2023-05-01T09:37:40.614Z,38.28
2023-05-01T09:40:09.179Z,38.86
2023-05-01T09:42:58.768Z,37.36
2023-05-01T09:45:26.719Z,38.38
2023-05-01T09:47:53.936Z,38.31
2023-05-01T09:50:31.528Z,37.68
2023-05-01T09:52:58.228Z,38.38
2023-05-01T09:55:25.956Z,38.65
2023-05-01T09:57:53.040Z,39.79
2023-05-01T10:00:22.246Z,39.16
2023-05-01T10:02:49.515Z,39.39
2023-05-01T10:05:16.337Z,38.80
2023-05-01T10:07:59.690Z,39.42
2023-05-01T10:10:26.642Z,37.87
2023-05-01T10:12:53.645Z,39.46
2023-05-01T10:15:26.623Z,39.80
2023-05-01T10:17:54.188Z,39.59
2023-05-01T10:20:21.563Z,41.50
2023-05-01T10:22:49.402Z,40.52
2023-05-01T10:25:16.824Z,41.71
2023-05-01T10:27:43.602Z,40.25
2023-05-01T10:30:10.766Z,40.26
2023-05-01T10:32:37.996Z,42.65
2023-05-01T10:35:08.851Z,40.23
2023-05-01T10:37:49.153Z,40.08
2023-05-01T10:40:43.550Z,39.91
2023-05-01T10:43:27.992Z,37.82
2023-05-01T10:46:09.974Z,37.98
2023-05-01T10:48:39.835Z,38.75
2023-05-01T10:51:24.955Z,40.40
2023-05-01T10:54:23.412Z,39.39
2023-05-01T10:56:50.310Z,41.30
2023-05-01T10:59:16.938Z,40.84
2023-05-01T11:01:48.233Z,40.20
2023-05-01T11:04:24.632Z,40.28
2023-05-01T11:07:08.492Z,39.60
2023-05-01T11:09:55.633Z,38.09
2023-05-01T11:12:48.178Z,38.38
2023-05-01T11:15:28.612Z,39.20
2023-05-01T11:17:56.096Z,37.81
2023-05-01T11:20:26.005Z,37.00
2023-05-01T11:22:53.730Z,36.48
2023-05-01T11:25:21.572Z,38.07
2023-05-01T11:27:49.504Z,38.11
2023-05-01T11:30:16.284Z,37.55
2023-05-01T11:32:47.201Z,40.14
2023-05-01T11:35:24.098Z,38.17
2023-05-01T11:37:55.984Z,34.98
2023-05-01T11:40:30.184Z,34.74
2023-05-01T11:43:04.263Z,37.49
2023-05-01T11:45:31.181Z,38.50
2023-05-01T11:47:58.780Z,39.19
2023-05-01T11:50:36.750Z,39.81
2023-05-01T11:53:04.300Z,39.97
2023-05-01T11:55:31.901Z,36.05
2023-05-01T11:57:59.343Z,36.12
2023-05-01T12:00:37.599Z,36.21
2023-05-01T12:03:08.529Z,35.65
2023-05-01T12:05:37.332Z,35.37
2023-05-01T12:08:15.151Z,34.82
2023-05-01T12:11:03.718Z,34.65
2023-05-01T12:13:30.416Z,34.82
2023-05-01T12:15:57.283Z,35.95
2023-05-01T12:18:24.002Z,34.96
2023-05-01T12:20:52.294Z,34.69
2023-05-01T12:23:30.388Z,33.63
2023-05-01T12:25:57.519Z,34.25
2023-05-01T12:28:24.318Z,34.09
2023-05-01T12:30:50.988Z,36.18
2023-05-01T12:33:18.978Z,37.37
2023-05-01T12:35:48.187Z,34.93
2023-05-01T12:38:16.632Z,36.52
2023-05-01T12:41:02.011Z,35.84
2023-05-01T12:43:34.267Z,35.75
2023-05-01T12:46:01.133Z,35.39
2023-05-01T12:48:28.110Z,36.23
2023-05-01T12:50:55.212Z,37.38
2023-05-01T12:53:25.851Z,36.90
2023-05-01T12:55:56.738Z,35.77
2023-05-01T12:58:23.820Z,36.08
2023-05-01T13:00:54.886Z,36.20
2023-05-01T13:03:26.198Z,35.85
2023-05-01T13:06:05.970Z,35.46
2023-05-01T13:08:34.171Z,38.07
2023-05-01T13:11:02.950Z,35.76
2023-05-01T13:13:35.109Z,35.65
2023-05-01T13:16:12.542Z,33.68
2023-05-01T13:18:52.356Z,35.45
2023-05-01T13:21:21.552Z,36.45
2023-05-01T13:24:11.204Z,35.66
2023-05-01T13:26:38.183Z,36.90
2023-05-01T13:29:05.945Z,37.26
2023-05-01T13:31:32.706Z,35.99
2023-05-01T13:33:59.634Z,35.72
2023-05-01T13:36:40.826Z,35.23
2023-05-01T13:39:07.536Z,36.87
2023-05-01T13:41:35.389Z,36.33
2023-05-01T13:44:02.083Z,35.70
2023-05-01T13:46:28.775Z,35.32
2023-05-01T13:48:56.401Z,33.48
2023-05-01T13:51:24.714Z,34.03
2023-05-01T13:53:53.429Z,35.05
2023-05-01T13:56:21.755Z,35.23
2023-05-01T13:58:48.703Z,35.54
2023-05-01T14:01:16.765Z,35.53
2023-05-01T14:03:43.646Z,35.58
2023-05-01T14:06:14.486Z,34.46
2023-05-01T14:08:41.803Z,35.11
2023-05-01T14:11:08.843Z,36.20
2023-05-01T14:13:43.594Z,37.00
2023-05-01T14:16:11.749Z,36.04
2023-05-01T14:18:45.624Z,35.16
2023-05-01T14:21:15.865Z,34.16
2023-05-01T14:23:42.795Z,33.89
2023-05-01T14:26:09.891Z,33.64
2023-05-01T14:28:41.668Z,33.51
2023-05-01T14:31:08.554Z,33.99
2023-05-01T14:33:44.391Z,34.44
2023-05-01T14:36:11.848Z,34.47
2023-05-01T14:38:40.284Z,35.28
2023-05-01T14:41:08.348Z,35.84
2023-05-01T14:43:36.868Z,35.61
2023-05-01T14:46:03.535Z,34.31
2023-05-01T14:48:33.822Z,33.83
2023-05-01T14:51:00.529Z,33.47
2023-05-01T14:53:28.174Z,33.17
2023-05-01T14:55:54.859Z,33.69
2023-05-01T14:58:21.486Z,35.23
2023-05-01T15:00:48.274Z,34.03
2023-05-01T15:03:15.008Z,34.17
2023-05-01T15:05:41.935Z,33.65
2023-05-01T15:08:09.179Z,34.13
2023-05-01T15:10:36.046Z,34.21
2023-05-01T15:13:02.824Z,36.12
2023-05-01T15:15:46.763Z,36.16
2023-05-01T15:18:13.478Z,35.81
2023-05-01T15:20:40.099Z,36.71
2023-05-01T15:23:06.693Z,35.95
2023-05-01T15:25:33.414Z,35.65
2023-05-01T15:28:00.212Z,36.72
2023-05-01T15:30:27.104Z,35.68
2023-05-01T15:32:55.908Z,36.14
2023-05-01T15:35:23.667Z,36.19
2023-05-01T15:37:50.962Z,36.16
2023-05-01T15:40:17.869Z,37.58
2023-05-01T15:42:47.979Z,36.56
2023-05-01T15:45:14.790Z,37.58
2023-05-01T15:47:41.601Z,37.73
2023-05-01T15:50:10.898Z,38.66
2023-05-01T15:52:38.194Z,38.11
2023-05-01T15:55:05.401Z,39.02
2023-05-01T15:57:33.232Z,38.16
2023-05-01T16:00:00.293Z,38.37
2023-05-01T16:02:27.434Z,38.28
2023-05-01T16:04:54.131Z,38.46
2023-05-01T16:07:21.828Z,38.37
2023-05-01T16:09:49.270Z,38.29
2023-05-01T16:12:17.188Z,39.04
2023-05-01T16:14:44.047Z,37.70
2023-05-01T16:17:10.795Z,38.52
2023-05-01T16:19:37.469Z,38.65
2023-05-01T16:22:05.048Z,38.66
2023-05-01T16:24:32.962Z,38.88
2023-05-01T16:27:00.040Z,38.24
2023-05-01T16:29:27.206Z,38.78
2023-05-01T16:31:53.947Z,39.11
2023-05-01T16:34:24.108Z,39.78
2023-05-01T16:36:50.829Z,39.32
2023-05-01T16:39:21.807Z,38.33
2023-05-01T16:41:52.626Z,39.93
2023-05-01T16:44:21.072Z,38.89
2023-05-01T16:46:55.452Z,39.82
2023-05-01T16:49:23.173Z,39.28
2023-05-01T16:51:50.194Z,39.88
2023-05-01T16:54:17.061Z,39.56
2023-05-01T16:56:43.951Z,40.42
2023-05-01T16:59:10.898Z,40.45
2023-05-01T17:01:40.434Z,40.68
2023-05-01T17:04:10.266Z,40.86
2023-05-01T17:06:37.340Z,41.72
2023-05-01T17:09:04.250Z,40.81
2023-05-01T17:11:40.294Z,41.03
2023-05-01T17:14:10.091Z,40.63
2023-05-01T17:16:40.015Z,41.24
2023-05-01T17:19:12.132Z,41.57
2023-05-01T17:21:50.111Z,42.11
2023-05-01T17:24:16.990Z,41.56
2023-05-01T17:26:46.933Z,41.35
2023-05-01T17:29:13.801Z,42.22
2023-05-01T17:31:40.516Z,42.22
2023-05-01T17:34:07.268Z,43.14
2023-05-01T17:36:33.878Z,42.66
2023-05-01T17:39:01.491Z,42.81
2023-05-01T17:41:38.381Z,42.60
2023-05-01T17:44:05.168Z,42.43
2023-05-01T17:46:32.303Z,42.39
2023-05-01T17:48:59.027Z,42.92
2023-05-01T17:51:25.714Z,42.92
2023-05-01T17:53:53.068Z,43.58
2023-05-01T17:56:19.716Z,43.32
2023-05-01T17:58:46.478Z,43.57
2023-05-01T18:01:13.132Z,43.53
2023-05-01T18:03:39.994Z,43.66
2023-05-01T18:06:06.807Z,44.69
2023-05-01T18:08:33.578Z,44.37
2023-05-01T18:11:00.217Z,45.42
2023-05-01T18:13:38.190Z,45.62
2023-05-01T18:16:05.420Z,45.90
2023-05-01T18:18:32.356Z,46.12
2023-05-01T18:20:59.100Z,45.71
2023-05-01T18:23:25.740Z,46.14
2023-05-01T18:25:52.410Z,46.25
2023-05-01T18:28:19.221Z,46.85
2023-05-01T18:30:46.325Z,46.65
2023-05-01T18:33:13.117Z,46.76
2023-05-01T18:35:43.183Z,47.43
2023-05-01T18:38:13.206Z,47.00
2023-05-01T18:40:39.885Z,47.28
2023-05-01T18:43:06.639Z,47.96
2023-05-01T18:45:33.308Z,47.75
2023-05-01T18:48:03.912Z,47.89
2023-05-01T18:50:31.207Z,47.87
2023-05-01T18:52:58.008Z,48.03
2023-05-01T18:55:25.454Z,47.93
2023-05-01T18:57:52.269Z,48.24
2023-05-01T19:00:20.412Z,48.33
2023-05-01T19:02:51.967Z,48.90
2023-05-01T19:05:19.216Z,48.69
2023-05-01T19:07:46.746Z,49.30
2023-05-01T19:10:13.622Z,49.40
2023-05-01T19:12:41.317Z,50.14
2023-05-01T19:15:08.758Z,50.01
2023-05-01T19:17:35.443Z,50.48
2023-05-01T19:20:04.169Z,50.61
2023-05-01T19:22:31.063Z,50.67
2023-05-01T19:24:57.717Z,50.83
2023-05-01T19:27:25.513Z,50.92
2023-05-01T19:29:53.900Z,51.17
2023-05-01T19:32:20.989Z,50.91
2023-05-01T19:34:47.664Z,51.33
2023-05-01T19:37:14.585Z,51.58
2023-05-01T19:39:41.171Z,52.31
2023-05-01T19:42:07.864Z,52.12
2023-05-01T19:44:34.527Z,52.06
2023-05-01T19:47:02.000Z,52.35
2023-05-01T19:49:28.711Z,52.08
2023-05-01T19:51:57.484Z,52.26
2023-05-01T19:54:26.160Z,52.54
2023-05-01T19:56:52.976Z,52.27
2023-05-01T19:59:19.829Z,52.46
2023-05-01T20:01:46.558Z,52.16
2023-05-01T20:04:13.335Z,52.00
2023-05-01T20:06:40.049Z,52.59
2023-05-01T20:09:07.273Z,52.58
2023-05-01T20:11:34.092Z,53.07
2023-05-01T20:14:02.218Z,52.40
2023-05-01T20:16:30.200Z,52.65
2023-05-01T20:18:56.878Z,52.55
2023-05-01T20:21:23.484Z,52.57
2023-05-01T20:23:50.803Z,52.41
2023-05-01T20:26:19.010Z,52.58
2023-05-01T20:28:45.824Z,52.44
2023-05-01T20:31:13.670Z,52.94
2023-05-01T20:33:40.432Z,53.08
2023-05-01T20:36:07.421Z,52.73
2023-05-01T20:38:39.243Z,52.97
2023-05-01T20:41:05.943Z,52.84
2023-05-01T20:43:32.589Z,52.37
2023-05-01T20:45:59.330Z,52.62
2023-05-01T20:48:26.990Z,51.91
2023-05-01T20:50:53.777Z,51.93
2023-05-01T20:53:20.475Z,52.24
2023-05-01T20:55:47.127Z,51.50
2023-05-01T20:58:13.966Z,51.68
2023-05-01T21:00:40.634Z,51.47
2023-05-01T21:03:07.475Z,51.71
2023-05-01T21:05:34.298Z,51.80
2023-05-01T21:08:02.195Z,51.29
2023-05-01T21:10:28.861Z,51.10
2023-05-01T21:12:56.422Z,51.52
2023-05-01T21:15:23.171Z,50.75
2023-05-01T21:17:49.933Z,51.71
2023-05-01T21:20:17.560Z,51.72
2023-05-01T21:22:46.257Z,52.36
2023-05-01T21:25:12.989Z,52.31
2023-05-01T21:27:41.446Z,52.44
2023-05-01T21:30:08.753Z,52.15
2023-05-01T21:32:41.690Z,52.50
2023-05-01T21:35:10.122Z,52.83
2023-05-01T21:37:37.256Z,52.53
2023-05-01T21:40:06.434Z,52.53
2023-05-01T21:42:38.115Z,52.71
2023-05-01T21:45:13.102Z,52.92
2023-05-01T21:47:44.541Z,52.78
2023-05-01T21:50:12.680Z,53.07
2023-05-01T21:52:39.548Z,52.99
2023-05-01T21:55:10.819Z,52.84
2023-05-01T21:57:38.338Z,53.03
2023-05-01T22:00:09.100Z,52.61
2023-05-01T22:02:38.807Z,52.47
2023-05-01T22:05:06.286Z,52.91
2023-05-01T22:07:33.492Z,52.90
2023-05-01T22:10:01.419Z,52.86
2023-05-01T22:12:28.507Z,52.35
2023-05-01T22:14:55.314Z,52.87
2023-05-01T22:17:24.745Z,52.58
2023-05-01T22:19:51.804Z,52.31
2023-05-01T22:22:18.955Z,52.13
2023-05-01T22:24:45.881Z,51.79
2023-05-01T22:27:12.550Z,52.12
2023-05-01T22:29:39.140Z,51.89
2023-05-01T22:32:06.352Z,51.63
2023-05-01T22:34:33.034Z,51.46
2023-05-01T22:36:59.641Z,52.32
2023-05-01T22:39:26.292Z,51.44
2023-05-01T22:41:53.029Z,51.28
2023-05-01T22:44:21.627Z,52.06
2023-05-01T22:46:49.128Z,51.75
2023-05-01T22:49:15.784Z,50.70
2023-05-01T22:51:42.460Z,51.00
2023-05-01T22:54:09.084Z,50.66
2023-05-01T22:56:35.755Z,50.42
2023-05-01T22:59:02.449Z,50.47
2023-05-01T23:01:29.427Z,50.87
2023-05-01T23:03:56.736Z,50.40
2023-05-01T23:06:23.544Z,50.94
2023-05-01T23:08:56.078Z,50.79
2023-05-01T23:11:22.778Z,51.27
2023-05-01T23:13:49.994Z,51.15
2023-05-01T23:16:16.867Z,50.21
2023-05-01T23:18:43.825Z,50.34
2023-05-01T23:21:11.091Z,50.06
2023-05-01T23:23:37.773Z,50.21
2023-05-01T23:26:04.435Z,50.76
2023-05-01T23:28:31.138Z,50.77
2023-05-01T23:30:59.107Z,50.83
2023-05-01T23:33:26.631Z,50.94
2023-05-01T23:35:53.337Z,49.89
2023-05-01T23:38:20.031Z,50.48
2023-05-01T23:40:47.220Z,49.78
2023-05-01T23:43:13.907Z,49.68
2023-05-01T23:45:40.663Z,49.52
2023-05-01T23:48:07.354Z,49.36
2023-05-01T23:50:34.006Z,49.71
2023-05-01T23:53:04.920Z,49.33
2023-05-01T23:55:31.711Z,49.18
2023-05-01T23:57:58.387Z,49.68
